createdAt,value
2022-08-22T00:01:35.881Z,101286.16
2022-08-22T00:03:08.735Z,101277.25
2022-08-22T00:04:35.230Z,101283.41
2022-08-22T00:07:46.285Z,101284.78
2022-08-22T00:10:44.537Z,101271.19
2022-08-22T00:13:41.773Z,101283.41
2022-08-22T00:16:55.488Z,101271.78
2022-08-22T00:20:00.057Z,101280.69
2022-08-22T00:22:58.161Z,101278.28
2022-08-22T00:26:02.922Z,101274.72
2022-08-22T00:29:02.238Z,101283.81
2022-08-22T00:31:54.569Z,101274.47
2022-08-22T00:34:50.877Z,101277.34
2022-08-22T00:37:41.653Z,101265.44
2022-08-22T00:40:45.162Z,101274.91
2022-08-22T00:43:58.410Z,101266.25
2022-08-22T00:46:54.085Z,101263.63
2022-08-22T00:50:20.991Z,101261.72
2022-08-22T00:53:18.014Z,101264.59
2022-08-22T00:56:37.452Z,101254.47
2022-08-22T01:00:09.395Z,101258.31
2022-08-22T01:03:27.571Z,101262.75
2022-08-22T01:07:06.702Z,101253.53
2022-08-22T01:10:14.562Z,101246.56
2022-08-22T01:13:20.601Z,101231.56
2022-08-22T01:16:42.482Z,101255.25
2022-08-22T01:19:33.356Z,101240.81
2022-08-22T01:23:03.514Z,101252.81
2022-08-22T01:26:07.433Z,101257.16
2022-08-22T01:29:00.457Z,101263.06
2022-08-22T01:32:31.914Z,101260.25
2022-08-22T01:35:28.832Z,101231.94
2022-08-22T01:38:35.191Z,101245.38
2022-08-22T01:41:26.041Z,101247.00
2022-08-22T01:44:44.097Z,101271.44
2022-08-22T01:47:54.195Z,101272.72
2022-08-22T01:50:54.802Z,101272.34
2022-08-22T01:53:53.366Z,101274.56
2022-08-22T01:56:45.897Z,101282.56
2022-08-22T01:59:52.710Z,101262.25
2022-08-22T02:03:00.140Z,101262.81
2022-08-22T02:05:59.832Z,101243.22
2022-08-22T02:09:01.957Z,101252.78
2022-08-22T02:11:55.150Z,101240.59
2022-08-22T02:14:50.574Z,101240.78
2022-08-22T02:17:52.347Z,101222.53
2022-08-22T02:20:56.533Z,101240.50
2022-08-22T02:23:56.029Z,101240.78
2022-08-22T02:26:52.772Z,101245.22
2022-08-22T02:29:53.651Z,101243.41
2022-08-22T02:32:45.994Z,101234.31
2022-08-22T02:35:39.816Z,101241.16
2022-08-22T02:38:24.754Z,101235.75
2022-08-22T02:41:21.323Z,101228.81
2022-08-22T02:44:31.474Z,101232.50
2022-08-22T02:47:36.169Z,101220.88
2022-08-22T02:50:46.078Z,101213.69
2022-08-22T02:53:30.961Z,101216.03
2022-08-22T02:56:26.962Z,101212.88
2022-08-22T02:59:27.273Z,101187.69
2022-08-22T03:02:34.953Z,101207.88
2022-08-22T03:05:38.409Z,101219.34
2022-08-22T03:08:31.146Z,101219.03
2022-08-22T03:11:27.863Z,101220.19
2022-08-22T03:14:43.375Z,101212.72
2022-08-22T03:17:39.353Z,101222.41
2022-08-22T03:20:50.827Z,101214.63
2022-08-22T03:24:01.633Z,101221.91
2022-08-22T03:26:46.827Z,101217.16
2022-08-22T03:30:20.068Z,101204.78
2022-08-22T03:33:34.468Z,101211.16
2022-08-22T03:36:28.440Z,101195.63
2022-08-22T03:39:42.870Z,101193.50
2022-08-22T03:42:59.694Z,101210.03
2022-08-22T03:45:59.975Z,101200.78
2022-08-22T03:48:51.421Z,101200.91
2022-08-22T03:51:51.750Z,101205.41
2022-08-22T03:54:52.244Z,101204.47
2022-08-22T03:57:37.501Z,101195.00
2022-08-22T04:00:34.217Z,101200.38
2022-08-22T04:04:01.301Z,101203.09
2022-08-22T04:06:49.434Z,101205.81
2022-08-22T04:10:02.370Z,101211.28
2022-08-22T04:12:53.382Z,101209.63
2022-08-22T04:16:07.241Z,101220.13
2022-08-22T04:19:08.131Z,101221.38
2022-08-22T04:21:53.367Z,101226.63
2022-08-22T04:24:44.510Z,101236.31
2022-08-22T04:27:49.693Z,101231.66
2022-08-22T04:30:42.829Z,101240.28
2022-08-22T04:33:28.425Z,101248.47
2022-08-22T04:36:20.763Z,101245.84
2022-08-22T04:39:18.397Z,101230.09
2022-08-22T04:42:31.862Z,101229.16
2022-08-22T04:45:32.021Z,101230.91
2022-08-22T04:48:37.593Z,101231.78
2022-08-22T04:51:50.670Z,101232.72
2022-08-22T04:54:56.800Z,101229.44
2022-08-22T04:58:09.669Z,101233.97
2022-08-22T05:01:09.695Z,101220.09
2022-08-22T05:04:06.087Z,101222.53
2022-08-22T05:06:56.793Z,101228.50
2022-08-22T05:09:56.356Z,101223.09
2022-08-22T05:12:45.973Z,101238.47
2022-08-22T05:15:35.165Z,101229.31
2022-08-22T05:18:29.636Z,101244.72
2022-08-22T05:21:18.362Z,101256.84
2022-08-22T05:24:16.825Z,101257.88
2022-08-22T05:27:11.333Z,101275.56
2022-08-22T05:30:24.744Z,101285.47
2022-08-22T05:33:34.833Z,101273.94
2022-08-22T05:36:25.513Z,101268.22
2022-08-22T05:39:18.765Z,101238.91
2022-08-22T05:42:04.622Z,101236.16
2022-08-22T05:44:50.151Z,101243.88
2022-08-22T05:48:04.189Z,101235.03
2022-08-22T05:50:58.460Z,101241.13
2022-08-22T05:53:48.336Z,101217.16
2022-08-22T05:56:38.631Z,101220.31
2022-08-22T05:59:29.414Z,101218.84
2022-08-22T06:02:39.002Z,101211.41
2022-08-22T06:05:30.934Z,101207.91
2022-08-22T06:08:48.569Z,101209.94
2022-08-22T06:11:44.848Z,101212.97
2022-08-22T06:14:43.356Z,101211.09
2022-08-22T06:17:35.254Z,101230.31
2022-08-22T06:20:32.928Z,101218.66
2022-08-22T06:23:26.753Z,101226.63
2022-08-22T06:26:20.877Z,101230.28
2022-08-22T06:29:08.753Z,101227.22
2022-08-22T06:31:54.001Z,101222.03
2022-08-22T06:34:42.935Z,101240.66
2022-08-22T06:37:36.685Z,101242.75
2022-08-22T06:40:23.045Z,101233.47
2022-08-22T06:43:11.211Z,101225.44
2022-08-22T06:45:56.806Z,101226.69
2022-08-22T06:48:44.003Z,101210.91
2022-08-22T06:51:30.269Z,101221.75
2022-08-22T06:54:21.605Z,101194.38
2022-08-22T06:57:12.184Z,101198.84
2022-08-22T07:00:00.144Z,101187.22
2022-08-22T07:02:57.074Z,101192.28
2022-08-22T07:05:42.903Z,101205.69
2022-08-22T07:08:36.001Z,101200.53
2022-08-22T07:11:34.902Z,101191.88
2022-08-22T07:14:28.165Z,101207.00
2022-08-22T07:17:22.002Z,101201.22
2022-08-22T07:20:23.945Z,101197.66
2022-08-22T07:23:12.900Z,101189.38
2022-08-22T07:26:15.145Z,101194.16
2022-08-22T07:29:11.590Z,101197.03
2022-08-22T07:32:03.180Z,101201.56
2022-08-22T07:35:02.989Z,101196.63
2022-08-22T07:38:03.352Z,101198.66
2022-08-22T07:41:07.461Z,101202.13
2022-08-22T07:44:00.971Z,101202.34
2022-08-22T07:47:00.769Z,101201.72
2022-08-22T07:50:08.369Z,101198.91
2022-08-22T07:53:00.979Z,101203.09
2022-08-22T07:55:49.283Z,101184.72
2022-08-22T07:58:39.607Z,101206.28
2022-08-22T08:01:26.712Z,101188.50
2022-08-22T08:04:17.246Z,101194.09
2022-08-22T08:07:05.850Z,101196.25
2022-08-22T08:09:56.675Z,101198.00
2022-08-22T08:12:52.770Z,101204.75
2022-08-22T08:15:49.396Z,101210.97
2022-08-22T08:18:37.151Z,101199.06
2022-08-22T08:21:27.649Z,101192.00
2022-08-22T08:24:19.273Z,101189.53
2022-08-22T08:27:30.208Z,101186.38
2022-08-22T08:30:46.818Z,101183.72
2022-08-22T08:33:32.861Z,101190.03
2022-08-22T08:36:53.212Z,101180.28
2022-08-22T08:39:44.922Z,101190.91
2022-08-22T08:43:11.038Z,101183.34
2022-08-22T08:46:27.106Z,101167.03
2022-08-22T08:49:23.959Z,101169.94
2022-08-22T08:52:15.521Z,101166.59
2022-08-22T08:55:16.020Z,101170.28
2022-08-22T08:58:31.984Z,101171.97
2022-08-22T09:01:28.852Z,101177.03
2022-08-22T09:04:30.450Z,101175.38
2022-08-22T09:07:49.878Z,101180.25
2022-08-22T09:11:09.574Z,101181.06
2022-08-22T09:14:17.050Z,101163.53
2022-08-22T09:17:31.666Z,101180.00
2022-08-22T09:20:31.840Z,101165.69
2022-08-22T09:24:06.360Z,101166.19
2022-08-22T09:26:57.489Z,101164.13
2022-08-22T09:29:57.121Z,101161.22
2022-08-22T09:33:02.648Z,101154.31
2022-08-22T09:35:47.624Z,101149.84
2022-08-22T09:38:52.952Z,101156.56
2022-08-22T09:41:40.841Z,101144.81
2022-08-22T09:44:51.146Z,101154.50
2022-08-22T09:47:47.869Z,101150.53
2022-08-22T09:51:04.690Z,101143.06
2022-08-22T09:54:02.681Z,101150.72
2022-08-22T09:57:15.008Z,101155.09
2022-08-22T10:00:22.352Z,101147.94
2022-08-22T10:03:25.289Z,101143.44
2022-08-22T10:06:23.313Z,101142.25
2022-08-22T10:09:33.450Z,101148.59
2022-08-22T10:12:27.297Z,101137.63
2022-08-22T10:15:12.454Z,101140.47
2022-08-22T10:18:00.438Z,101147.91
2022-08-22T10:21:13.325Z,101143.72
2022-08-22T10:24:29.498Z,101143.34
2022-08-22T10:27:20.431Z,101137.53
2022-08-22T10:30:20.430Z,101154.88
2022-08-22T10:33:41.815Z,101151.03
2022-08-22T10:36:36.092Z,101146.81
2022-08-22T10:39:26.792Z,101146.63
2022-08-22T10:42:18.558Z,101145.78
2022-08-22T10:45:24.082Z,101156.22
2022-08-22T10:48:45.248Z,101152.31
2022-08-22T10:51:52.135Z,101158.69
2022-08-22T10:54:51.316Z,101144.00
2022-08-22T10:57:44.076Z,101144.00
2022-08-22T11:00:54.411Z,101140.56
2022-08-22T11:03:57.416Z,101146.97
2022-08-22T11:07:06.016Z,101140.13
2022-08-22T11:10:03.806Z,101137.81
2022-08-22T11:13:32.314Z,101139.59
2022-08-22T11:16:41.604Z,101138.28
2022-08-22T11:19:31.792Z,101136.91
2022-08-22T11:22:33.605Z,101136.13
2022-08-22T11:25:43.466Z,101133.50
2022-08-22T11:28:51.033Z,101141.53
2022-08-22T11:32:13.551Z,101153.53
2022-08-22T11:35:09.008Z,101148.72
2022-08-22T11:38:05.491Z,101134.41
2022-08-22T11:41:26.490Z,101131.31
2022-08-22T11:44:32.128Z,101126.59
2022-08-22T11:47:29.111Z,101125.84
2022-08-22T11:50:35.246Z,101118.94
2022-08-22T11:53:43.228Z,101136.59
2022-08-22T11:56:54.870Z,101124.47
2022-08-22T11:59:43.016Z,101135.72
2022-08-22T12:02:53.236Z,101135.31
2022-08-22T12:06:13.652Z,101145.81
2022-08-22T12:09:21.366Z,101116.66
2022-08-22T12:12:10.700Z,101117.69
2022-08-22T12:15:05.351Z,101115.78
2022-08-22T12:18:21.280Z,101126.47
2022-08-22T12:21:06.917Z,101123.28
2022-08-22T12:24:19.154Z,101117.66
2022-08-22T12:27:36.536Z,101101.47
2022-08-22T12:30:42.906Z,101090.88
2022-08-22T12:33:42.385Z,101082.38
2022-08-22T12:36:42.269Z,101075.66
2022-08-22T12:39:42.542Z,101074.59
2022-08-22T12:43:10.159Z,101079.00
2022-08-22T12:46:04.358Z,101073.63
2022-08-22T12:48:59.551Z,101072.41
2022-08-22T12:52:26.579Z,101066.16
2022-08-22T12:55:24.838Z,101062.72
2022-08-22T12:58:31.701Z,101059.31
2022-08-22T13:01:19.481Z,101059.22
2022-08-22T13:04:31.054Z,101063.25
2022-08-22T13:07:22.709Z,101059.09
2022-08-22T13:10:26.150Z,101056.00
2022-08-22T13:13:16.590Z,101049.03
2022-08-22T13:16:16.214Z,101048.41
2022-08-22T13:19:08.962Z,101050.28
2022-08-22T13:22:13.361Z,101047.81
2022-08-22T13:25:14.757Z,101055.47
2022-08-22T13:28:12.606Z,101062.25
2022-08-22T13:30:59.897Z,101059.91
2022-08-22T13:33:48.040Z,101055.88
2022-08-22T13:36:42.091Z,101057.28
2022-08-22T13:39:41.481Z,101047.03
2022-08-22T13:42:31.324Z,101056.53
2022-08-22T13:45:27.840Z,101046.25
2022-08-22T13:48:15.556Z,101062.06
2022-08-22T13:51:21.825Z,101054.03
2022-08-22T13:54:43.561Z,101058.84
2022-08-22T13:57:38.822Z,101063.66
2022-08-22T14:01:35.298Z,101065.09
2022-08-22T14:04:32.090Z,101066.59
2022-08-22T14:07:31.044Z,101065.91
2022-08-22T14:10:28.641Z,101068.22
2022-08-22T14:13:37.564Z,101060.19
2022-08-22T14:16:27.131Z,101056.97
2022-08-22T14:19:22.825Z,101061.09
2022-08-22T14:22:19.549Z,101059.84
2022-08-22T14:25:16.843Z,101053.91
2022-08-22T14:28:09.339Z,101059.56
2022-08-22T14:31:13.208Z,101051.47
2022-08-22T14:34:07.445Z,101034.59
2022-08-22T14:37:04.426Z,101048.78
2022-08-22T14:39:56.816Z,101035.72
2022-08-22T14:42:48.602Z,101031.97
2022-08-22T14:45:40.564Z,101014.44
2022-08-22T14:48:50.385Z,101022.47
2022-08-22T14:51:36.341Z,101006.88
2022-08-22T14:54:28.972Z,101011.16
2022-08-22T14:57:18.507Z,101006.16
2022-08-22T15:00:12.004Z,101001.16
2022-08-22T15:03:10.833Z,101008.94
2022-08-22T15:06:10.165Z,101000.81
2022-08-22T15:08:57.243Z,101002.22
2022-08-22T15:11:47.482Z,100998.78
2022-08-22T15:14:37.739Z,100995.47
2022-08-22T15:17:44.854Z,100996.28
2022-08-22T15:20:49.089Z,100995.53
2022-08-22T15:23:44.839Z,100985.03
2022-08-22T15:26:39.461Z,100996.66
2022-08-22T15:29:28.979Z,101004.69
2022-08-22T15:32:20.910Z,100999.22
2022-08-22T15:35:27.694Z,100999.69
2022-08-22T15:38:36.348Z,100997.31
2022-08-22T15:41:40.844Z,100985.31
2022-08-22T15:44:47.414Z,100994.44
2022-08-22T15:47:41.454Z,100996.00
2022-08-22T15:50:29.698Z,100999.31
2022-08-22T15:53:21.695Z,101004.69
2022-08-22T15:56:23.679Z,101006.69
2022-08-22T15:59:20.493Z,100995.44
2022-08-22T16:02:35.277Z,100993.22
2022-08-22T16:05:26.677Z,100989.91
2022-08-22T16:08:22.653Z,100995.91
2022-08-22T16:11:19.666Z,101002.63
2022-08-22T16:14:24.396Z,100997.13
2022-08-22T16:17:24.795Z,100988.63
2022-08-22T16:20:17.848Z,100995.34
2022-08-22T16:23:08.790Z,100989.91
2022-08-22T16:25:54.237Z,100992.03
2022-08-22T16:29:00.609Z,100990.47
2022-08-22T16:31:48.742Z,100996.38
2022-08-22T16:34:36.805Z,100984.94
2022-08-22T16:37:24.930Z,100991.59
2022-08-22T16:40:17.861Z,100990.56
2022-08-22T16:43:17.914Z,100986.59
2022-08-22T16:46:34.635Z,100974.22
2022-08-22T16:49:33.344Z,100973.97
2022-08-22T16:52:24.653Z,100968.63
2022-08-22T16:55:28.501Z,100981.44
2022-08-22T16:58:58.926Z,100959.31
2022-08-22T17:02:24.924Z,100975.63
2022-08-22T17:05:29.825Z,100974.16
2022-08-22T17:08:24.477Z,100977.00
2022-08-22T17:11:50.494Z,100980.97
2022-08-22T17:15:23.129Z,100974.59
2022-08-22T17:18:25.495Z,100982.53
2022-08-22T17:21:32.470Z,100982.63
2022-08-22T17:24:35.582Z,100962.88
2022-08-22T17:27:39.041Z,100986.41
2022-08-22T17:30:36.820Z,100982.44
2022-08-22T17:33:33.246Z,100965.66
2022-08-22T17:36:49.926Z,100984.47
2022-08-22T17:39:53.018Z,100975.31
2022-08-22T17:42:51.281Z,100988.66
2022-08-22T17:45:55.223Z,100987.91
2022-08-22T17:48:55.409Z,100990.09
2022-08-22T17:51:55.450Z,100991.69
2022-08-22T17:54:48.847Z,100987.25
2022-08-22T17:57:39.169Z,100987.50
2022-08-22T18:00:49.047Z,100989.75
2022-08-22T18:03:38.733Z,101000.34
2022-08-22T18:06:33.667Z,100995.84
2022-08-22T18:09:29.855Z,101004.91
2022-08-22T18:12:38.045Z,101001.28
2022-08-22T18:15:30.213Z,100998.66
2022-08-22T18:18:31.261Z,101008.50
2022-08-22T18:21:32.444Z,101011.00
2022-08-22T18:24:24.688Z,101004.66
2022-08-22T18:27:34.763Z,101014.50
2022-08-22T18:30:29.338Z,101010.16
2022-08-22T18:33:42.572Z,101017.00
2022-08-22T18:36:39.679Z,101015.84
2022-08-22T18:39:32.144Z,101014.00
2022-08-22T18:42:33.437Z,101020.03
2022-08-22T18:45:44.131Z,101014.22
2022-08-22T18:49:05.478Z,101011.19
2022-08-22T18:52:13.774Z,101016.69
2022-08-22T18:55:01.725Z,101030.31
2022-08-22T18:58:08.637Z,101024.94
2022-08-22T19:01:17.566Z,101020.34
2022-08-22T19:04:35.064Z,101029.44
2022-08-22T19:08:01.381Z,101023.59
2022-08-22T19:11:12.757Z,101030.41
2022-08-22T19:14:47.683Z,101029.38
2022-08-22T19:18:07.343Z,101040.19
2022-08-22T19:21:38.918Z,101033.38
2022-08-22T19:24:26.829Z,101036.16
2022-08-22T19:27:24.741Z,101026.88
2022-08-22T19:30:33.964Z,101034.00
2022-08-22T19:33:34.307Z,101040.78
2022-08-22T19:36:37.499Z,101042.78
2022-08-22T19:39:40.709Z,101027.44
2022-08-22T19:42:27.170Z,101044.75
2022-08-22T19:45:25.652Z,101049.22
2022-08-22T19:48:14.129Z,101045.31
2022-08-22T19:51:20.312Z,101045.31
2022-08-22T19:54:17.088Z,101042.34
2022-08-22T19:57:13.819Z,101045.16
2022-08-22T20:00:13.811Z,101043.16
2022-08-22T20:03:07.862Z,101044.94
2022-08-22T20:06:33.596Z,101044.09
2022-08-22T20:09:29.525Z,101041.59
2022-08-22T20:12:19.913Z,101038.63
2022-08-22T20:15:23.438Z,101046.91
2022-08-22T20:21:39.348Z,101046.22
2022-08-22T20:24:39.791Z,101036.28
2022-08-22T20:27:28.532Z,101039.25
2022-08-22T20:30:27.356Z,101038.38
2022-08-22T20:33:18.475Z,101032.72
2022-08-22T20:36:27.387Z,101030.59
2022-08-22T20:39:26.642Z,101018.41
2022-08-22T20:42:15.065Z,101033.84
2022-08-22T20:45:12.118Z,101035.19
2022-08-22T20:47:57.970Z,101031.69
2022-08-22T20:50:43.338Z,101020.53
2022-08-22T20:53:28.626Z,101014.19
2022-08-22T20:56:14.288Z,101022.84
2022-08-22T20:59:01.272Z,101014.19
2022-08-22T21:01:47.320Z,101013.63
2022-08-22T21:04:50.864Z,101010.16
2022-08-22T21:07:41.553Z,101005.47
2022-08-22T21:10:48.815Z,101006.94
2022-08-22T21:13:36.713Z,101007.25
2022-08-22T21:16:31.943Z,101006.56
2022-08-22T21:19:25.988Z,101006.06
2022-08-22T21:22:17.724Z,101010.75
2022-08-22T21:25:02.941Z,101000.94
2022-08-22T21:27:48.273Z,101002.09
2022-08-22T21:30:35.696Z,100998.75
2022-08-22T21:33:24.555Z,100998.41
2022-08-22T21:36:12.352Z,100986.91
2022-08-22T21:39:00.858Z,101000.09
2022-08-22T21:42:09.312Z,101001.09
2022-08-22T21:45:00.530Z,100998.13
2022-08-22T21:47:45.998Z,100997.09
2022-08-22T21:50:38.053Z,100998.22
2022-08-22T21:53:28.177Z,100996.25
2022-08-22T21:56:16.640Z,101000.75
2022-08-22T21:59:24.981Z,101003.53
2022-08-22T22:02:36.562Z,101004.06
2022-08-22T22:05:22.212Z,101006.34
2022-08-22T22:08:10.964Z,101005.69
2022-08-22T22:10:58.851Z,101008.63
2022-08-22T22:13:45.028Z,101013.28
2022-08-22T22:16:31.418Z,101009.25
2022-08-22T22:19:16.662Z,101005.91
2022-08-22T22:22:02.416Z,100999.25
2022-08-22T22:24:47.634Z,101015.69
2022-08-22T22:27:33.013Z,101010.56
2022-08-22T22:30:20.509Z,100997.06
2022-08-22T22:33:06.367Z,101008.22
2022-08-22T22:35:53.797Z,101007.38
2022-08-22T22:38:40.728Z,101004.72
2022-08-22T22:41:26.251Z,100998.44
2022-08-22T22:44:11.759Z,101005.56
2022-08-22T22:47:02.265Z,101008.75
2022-08-22T22:49:47.609Z,100991.22
2022-08-22T22:52:32.587Z,101004.25
2022-08-22T22:55:25.002Z,101006.75
2022-08-22T22:58:10.814Z,100996.97
2022-08-22T23:00:56.613Z,101002.59
2022-08-22T23:03:43.181Z,100999.25
2022-08-22T23:06:29.920Z,101001.91
2022-08-22T23:09:14.770Z,101011.22
2022-08-22T23:12:00.483Z,101017.53
2022-08-22T23:14:45.931Z,101004.06
2022-08-22T23:17:31.375Z,101003.88
2022-08-22T23:20:16.544Z,101017.41
2022-08-22T23:23:01.676Z,101019.88
2022-08-22T23:25:46.925Z,101024.03
2022-08-22T23:28:32.108Z,101031.19
2022-08-22T23:31:29.810Z,101013.22
2022-08-22T23:34:21.611Z,101026.56
2022-08-22T23:37:07.953Z,101016.53
2022-08-22T23:39:53.026Z,100999.88
2022-08-22T23:42:38.762Z,101022.69
2022-08-22T23:45:23.663Z,101019.88
2022-08-22T23:48:08.877Z,101016.53
2022-08-22T23:50:54.071Z,101016.69
2022-08-22T23:53:40.363Z,101004.25
2022-08-22T23:56:28.997Z,101015.09
2022-08-22T23:59:17.442Z,101008.94
